createdAt,value
2023-01-21T00:01:13.608Z,31.38
2023-01-21T00:03:42.101Z,24.60
2023-01-21T00:06:10.720Z,26.48
2023-01-21T00:08:38.818Z,26.02
2023-01-21T00:11:07.502Z,28.88
2023-01-21T00:13:35.933Z,31.23
2023-01-21T00:16:06.372Z,30.63
2023-01-21T00:18:35.085Z,29.20
2023-01-21T00:21:03.561Z,27.38
2023-01-21T00:23:31.502Z,31.52
2023-01-21T00:26:00.555Z,30.98
2023-01-21T00:28:32.753Z,28.33
2023-01-21T00:31:01.788Z,29.23
2023-01-21T00:33:32.339Z,28.52
2023-01-21T00:36:01.404Z,30.15
2023-01-21T00:38:29.879Z,26.63
2023-01-21T00:41:01.966Z,26.70
2023-01-21T00:43:30.417Z,33.22
2023-01-21T00:45:58.790Z,27.02
2023-01-21T00:48:28.338Z,31.13
2023-01-21T00:51:00.631Z,27.88
2023-01-21T00:53:30.149Z,31.13
2023-01-21T00:56:01.111Z,27.00
2023-01-21T00:58:29.817Z,29.63
2023-01-21T01:01:06.286Z,27.98
2023-01-21T01:03:35.834Z,27.80
2023-01-21T01:06:07.274Z,27.45
2023-01-21T01:08:35.542Z,28.10
2023-01-21T01:11:03.671Z,33.28
2023-01-21T01:13:32.067Z,38.15
2023-01-21T01:16:00.326Z,30.10
2023-01-21T01:18:29.943Z,33.38
2023-01-21T01:20:58.288Z,34.60
2023-01-21T01:23:27.747Z,33.75
2023-01-21T01:25:57.131Z,36.55
2023-01-21T01:28:25.422Z,35.97
2023-01-21T01:30:53.516Z,30.27
2023-01-21T01:33:21.862Z,33.55
2023-01-21T01:35:50.375Z,30.77
2023-01-21T01:38:20.948Z,29.17
2023-01-21T01:40:52.512Z,33.95
2023-01-21T01:43:22.660Z,34.47
2023-01-21T01:45:51.005Z,33.20
2023-01-21T01:48:24.558Z,28.83
2023-01-21T01:50:52.757Z,34.03
2023-01-21T01:53:21.459Z,37.08
2023-01-21T01:55:51.174Z,30.85
2023-01-21T01:58:21.908Z,31.00
2023-01-21T02:00:50.192Z,33.92
2023-01-21T02:03:36.528Z,36.35
2023-01-21T02:06:04.897Z,36.50
2023-01-21T02:08:36.126Z,37.60
2023-01-21T02:11:11.695Z,38.05
2023-01-21T02:13:40.913Z,33.47
2023-01-21T02:16:34.522Z,36.25
2023-01-21T02:22:00.660Z,36.05
2023-01-21T02:25:07.757Z,36.70
2023-01-21T02:27:46.171Z,37.38
2023-01-21T02:30:45.329Z,37.47
2023-01-21T02:33:49.674Z,33.83
2023-01-21T02:36:36.124Z,34.50
2023-01-21T02:39:10.530Z,37.05
2023-01-21T02:41:50.258Z,34.55
2023-01-21T02:44:25.836Z,39.75
2023-01-21T02:46:59.837Z,37.20
2023-01-21T02:49:36.256Z,36.92
2023-01-21T02:52:04.282Z,39.00
2023-01-21T02:54:53.166Z,36.63
2023-01-21T02:57:39.699Z,36.58
2023-01-21T03:00:12.496Z,37.60
2023-01-21T03:03:01.086Z,39.38
2023-01-21T03:05:41.627Z,36.60
2023-01-21T03:08:16.897Z,34.03
2023-01-21T03:10:51.766Z,36.53
2023-01-21T03:13:38.554Z,37.97
2023-01-21T03:16:28.979Z,38.40
2023-01-21T03:19:00.356Z,39.60
2023-01-21T03:21:32.117Z,38.58
2023-01-21T03:24:02.277Z,34.00
2023-01-21T03:26:34.167Z,39.42
2023-01-21T03:29:07.072Z,35.95
2023-01-21T03:31:38.055Z,37.78
2023-01-21T03:34:10.371Z,37.90
2023-01-21T03:36:44.058Z,35.42
2023-01-21T03:39:17.051Z,35.72
2023-01-21T03:44:13.005Z,41.90
2023-01-21T03:46:49.232Z,36.95
2023-01-21T03:49:21.748Z,37.42
2023-01-21T03:51:54.954Z,36.40
2023-01-21T03:54:23.798Z,38.97
2023-01-21T03:56:51.746Z,39.58
2023-01-21T03:59:19.747Z,39.33
2023-01-21T04:01:47.727Z,37.72
2023-01-21T04:04:15.669Z,38.17
2023-01-21T04:06:43.672Z,35.85
2023-01-21T04:09:12.979Z,35.03
2023-01-21T04:11:40.940Z,37.75
2023-01-21T04:14:09.150Z,42.90
2023-01-21T04:16:37.129Z,36.05
2023-01-21T04:19:05.422Z,40.92
2023-01-21T04:21:33.420Z,36.05
2023-01-21T04:24:01.360Z,38.40
2023-01-21T04:26:30.707Z,35.97
2023-01-21T04:28:58.683Z,36.60
2023-01-21T04:31:26.701Z,36.03
2023-01-21T04:33:54.664Z,36.42
2023-01-21T04:36:22.667Z,36.80
2023-01-21T04:38:50.589Z,38.85
2023-01-21T04:41:18.495Z,35.72
2023-01-21T04:43:47.873Z,39.97
2023-01-21T04:46:16.011Z,33.55
2023-01-21T04:48:43.990Z,35.85
2023-01-21T04:51:12.041Z,37.45
2023-01-21T04:53:40.063Z,37.53
2023-01-21T04:56:08.547Z,36.90
2023-01-21T04:58:36.507Z,38.28
2023-01-21T05:01:05.939Z,37.88
2023-01-21T05:03:33.958Z,35.45
2023-01-21T05:06:01.884Z,37.35
2023-01-21T05:08:30.331Z,35.45
2023-01-21T05:10:58.310Z,35.75
2023-01-21T05:13:26.264Z,40.35
2023-01-21T05:15:54.348Z,38.17
2023-01-21T05:18:23.700Z,35.08
2023-01-21T05:20:51.674Z,43.15
2023-01-21T05:23:19.680Z,42.35
2023-01-21T05:25:49.971Z,38.15
2023-01-21T05:28:17.938Z,40.72
2023-01-21T05:30:45.975Z,39.47
2023-01-21T05:33:14.279Z,45.95
2023-01-21T05:35:43.759Z,40.95
2023-01-21T05:38:11.729Z,39.33
2023-01-21T05:40:39.731Z,37.85
2023-01-21T05:43:07.593Z,35.15
2023-01-21T05:45:35.490Z,36.10
2023-01-21T05:48:03.434Z,36.15
2023-01-21T05:50:32.510Z,37.45
2023-01-21T05:53:01.724Z,36.60
2023-01-21T05:55:29.677Z,34.42
2023-01-21T05:57:57.584Z,36.33
2023-01-21T06:00:25.808Z,42.95
2023-01-21T06:02:53.773Z,41.17
2023-01-21T06:05:21.653Z,36.80
2023-01-21T06:07:50.898Z,40.80
2023-01-21T06:10:20.551Z,39.67
2023-01-21T06:12:51.811Z,35.72
2023-01-21T06:15:20.059Z,43.83
2023-01-21T06:17:47.989Z,40.95
2023-01-21T06:20:16.524Z,36.70
2023-01-21T06:22:44.624Z,40.03
2023-01-21T06:25:12.667Z,41.88
2023-01-21T06:27:41.954Z,37.50
2023-01-21T06:30:11.627Z,41.55
2023-01-21T06:32:39.634Z,39.88
2023-01-21T06:35:07.967Z,36.30
2023-01-21T06:37:35.901Z,38.83
2023-01-21T06:40:03.906Z,43.35
2023-01-21T06:42:31.929Z,37.70
2023-01-21T06:45:01.229Z,40.47
2023-01-21T06:47:29.295Z,43.00
2023-01-21T06:49:57.233Z,41.03
2023-01-21T06:52:25.458Z,38.90
2023-01-21T06:54:53.320Z,43.50
2023-01-21T06:57:21.266Z,39.13
2023-01-21T06:59:49.165Z,38.03
2023-01-21T07:02:18.445Z,39.20
2023-01-21T07:04:46.388Z,35.28
2023-01-21T07:07:14.631Z,31.60
2023-01-21T07:09:42.614Z,31.75
2023-01-21T07:12:10.758Z,33.58
2023-01-21T07:14:40.999Z,34.97
2023-01-21T07:17:09.146Z,32.35
2023-01-21T07:19:38.399Z,35.47
2023-01-21T07:22:06.316Z,35.03
2023-01-21T07:24:35.577Z,32.22
2023-01-21T07:27:05.285Z,30.85
2023-01-21T07:29:33.272Z,33.70
2023-01-21T07:32:01.224Z,32.67
2023-01-21T07:34:29.227Z,34.20
2023-01-21T07:36:58.503Z,29.27
2023-01-21T07:39:26.914Z,29.67
2023-01-21T07:41:54.872Z,32.70
2023-01-21T07:44:22.747Z,33.95
2023-01-21T07:46:50.671Z,38.63
2023-01-21T07:49:18.929Z,33.88
2023-01-21T07:51:47.246Z,30.83
2023-01-21T07:54:17.040Z,32.47
2023-01-21T07:56:44.930Z,29.67
2023-01-21T07:59:13.425Z,35.78
2023-01-21T08:01:41.510Z,35.97
2023-01-21T08:04:09.882Z,37.20
2023-01-21T08:06:41.248Z,35.97
2023-01-21T08:09:09.540Z,34.58
2023-01-21T08:11:39.172Z,35.30
2023-01-21T08:14:07.122Z,33.13
2023-01-21T08:16:35.171Z,38.92
2023-01-21T08:19:03.215Z,36.88
2023-01-21T08:21:31.354Z,41.20
2023-01-21T08:23:59.360Z,32.97
2023-01-21T08:26:27.465Z,34.90
2023-01-21T08:28:56.965Z,37.13
2023-01-21T08:31:25.043Z,36.20
2023-01-21T08:33:53.049Z,35.92
2023-01-21T08:36:21.208Z,34.95
2023-01-21T08:38:49.184Z,38.50
2023-01-21T08:41:17.796Z,40.78
2023-01-21T08:43:45.852Z,37.97
2023-01-21T08:46:15.708Z,34.20
2023-01-21T08:48:43.804Z,32.60
2023-01-21T08:51:11.811Z,38.80
2023-01-21T08:53:39.742Z,37.28
2023-01-21T08:56:08.049Z,37.42
2023-01-21T08:58:36.238Z,42.03
2023-01-21T09:01:08.826Z,34.80
2023-01-21T09:03:38.357Z,37.20
2023-01-21T09:06:08.238Z,36.15
2023-01-21T09:08:37.208Z,39.10
2023-01-21T09:11:07.007Z,34.42
2023-01-21T09:13:37.694Z,44.60
2023-01-21T09:16:09.427Z,36.90
2023-01-21T09:18:38.738Z,38.78
2023-01-21T09:21:08.198Z,35.35
2023-01-21T09:23:36.945Z,35.05
2023-01-21T09:26:07.470Z,33.30
2023-01-21T09:28:37.214Z,35.50
2023-01-21T09:31:07.119Z,41.17
2023-01-21T09:33:38.370Z,33.92
2023-01-21T09:36:08.416Z,34.70
2023-01-21T09:38:36.479Z,37.92
2023-01-21T09:41:17.080Z,37.03
2023-01-21T09:43:48.345Z,42.90
2023-01-21T09:46:23.646Z,40.30
2023-01-21T09:48:53.864Z,36.50
2023-01-21T09:51:29.934Z,35.25
2023-01-21T09:53:59.418Z,36.70
2023-01-21T09:56:34.311Z,40.20
2023-01-21T09:59:08.282Z,36.38
2023-01-21T10:01:40.362Z,33.92
2023-01-21T10:04:29.258Z,39.47
2023-01-21T10:07:05.037Z,35.85
2023-01-21T10:09:46.949Z,38.63
2023-01-21T10:12:25.492Z,34.97
2023-01-21T10:15:27.516Z,41.20
2023-01-21T10:17:59.216Z,36.30
2023-01-21T10:20:32.018Z,39.05
2023-01-21T10:23:07.147Z,38.95
2023-01-21T10:25:38.009Z,36.90
2023-01-21T10:28:13.593Z,36.42
2023-01-21T10:30:45.447Z,35.90
2023-01-21T10:33:18.200Z,38.83
2023-01-21T10:36:06.511Z,34.00
2023-01-21T10:38:42.823Z,32.97
2023-01-21T10:41:28.727Z,38.13
2023-01-21T10:44:05.058Z,35.42
2023-01-21T10:46:43.242Z,33.80
2023-01-21T10:49:24.388Z,37.92
2023-01-21T10:52:01.582Z,39.75
2023-01-21T10:54:39.843Z,33.80
2023-01-21T10:57:16.270Z,33.70
2023-01-21T10:59:44.583Z,33.85
2023-01-21T11:02:22.761Z,32.17
2023-01-21T11:04:51.809Z,36.42
2023-01-21T11:07:22.497Z,37.25
2023-01-21T11:09:50.476Z,30.92
2023-01-21T11:12:20.582Z,32.50
2023-01-21T11:14:51.619Z,33.10
2023-01-21T11:17:34.247Z,30.52
2023-01-21T11:20:04.763Z,30.10
2023-01-21T11:22:34.256Z,32.55
2023-01-21T11:25:02.750Z,32.53
2023-01-21T11:27:36.027Z,31.25
2023-01-21T11:30:15.650Z,34.55
2023-01-21T11:32:53.064Z,28.48
2023-01-21T11:35:24.297Z,30.73
2023-01-21T11:37:53.555Z,29.73
2023-01-21T11:40:25.885Z,27.23
2023-01-21T11:42:55.576Z,31.73
2023-01-21T11:45:29.738Z,31.17
2023-01-21T11:47:58.495Z,31.05
2023-01-21T11:50:29.401Z,28.40
2023-01-21T11:53:15.552Z,30.50
2023-01-21T11:55:46.721Z,29.52
2023-01-21T11:58:20.880Z,29.90
2023-01-21T12:00:50.717Z,31.27
2023-01-21T12:03:22.652Z,31.30
2023-01-21T12:05:53.066Z,28.42
2023-01-21T12:08:24.903Z,28.80
2023-01-21T12:10:54.737Z,33.35
2023-01-21T12:13:29.873Z,27.45
2023-01-21T12:16:28.845Z,34.50
2023-01-21T12:19:22.997Z,29.27
2023-01-21T12:22:04.939Z,29.13
2023-01-21T12:24:46.130Z,29.08
2023-01-21T12:27:22.522Z,25.77
2023-01-21T12:30:06.453Z,31.88
2023-01-21T12:32:39.996Z,30.10
2023-01-21T12:35:13.596Z,26.52
2023-01-21T12:37:48.299Z,27.10
2023-01-21T12:40:23.601Z,27.00
2023-01-21T12:42:57.325Z,26.83
2023-01-21T12:45:29.364Z,28.67
2023-01-21T12:48:01.845Z,31.02
2023-01-21T12:50:35.222Z,26.33
2023-01-21T12:53:16.802Z,28.80
2023-01-21T12:56:04.126Z,24.58
2023-01-21T12:58:34.140Z,31.42
2023-01-21T13:01:05.451Z,25.40
2023-01-21T13:03:43.998Z,21.42
2023-01-21T13:06:18.142Z,22.92
2023-01-21T13:08:56.021Z,25.55
2023-01-21T13:11:30.149Z,24.85
2023-01-21T13:14:19.583Z,22.42
2023-01-21T13:16:51.293Z,24.80
2023-01-21T13:19:19.258Z,25.98
2023-01-21T13:21:55.617Z,23.38
2023-01-21T13:24:30.880Z,25.05
2023-01-21T13:27:07.297Z,22.85
2023-01-21T13:29:43.543Z,26.30
2023-01-21T13:32:29.761Z,26.05
2023-01-21T13:35:08.606Z,24.08
2023-01-21T13:37:42.927Z,24.17
2023-01-21T13:40:23.149Z,23.33
2023-01-21T13:43:00.387Z,27.58
2023-01-21T13:45:36.661Z,22.02
2023-01-21T13:48:29.270Z,26.42
2023-01-21T13:51:18.846Z,17.13
2023-01-21T13:54:04.457Z,22.13
2023-01-21T13:56:43.846Z,25.00
2023-01-21T13:59:17.658Z,20.08
2023-01-21T14:01:49.972Z,25.85
2023-01-21T14:04:25.164Z,23.20
2023-01-21T14:06:57.052Z,21.08
2023-01-21T14:09:28.424Z,24.52
2023-01-21T14:12:00.597Z,22.58
2023-01-21T14:15:07.620Z,22.37
2023-01-21T14:18:03.275Z,25.17
2023-01-21T14:20:44.205Z,20.92
2023-01-21T14:23:32.830Z,23.08
2023-01-21T14:26:16.093Z,25.90
2023-01-21T14:31:23.208Z,22.42
2023-01-21T14:34:00.488Z,32.63
2023-01-21T14:36:38.161Z,25.63
2023-01-21T14:39:12.241Z,26.73
2023-01-21T14:42:03.386Z,25.83
2023-01-21T14:44:39.684Z,29.67
2023-01-21T14:47:23.397Z,23.10
2023-01-21T14:49:54.396Z,22.77
2023-01-21T14:52:29.063Z,20.23
2023-01-21T14:54:57.317Z,26.23
2023-01-21T14:57:30.518Z,25.77
2023-01-21T15:00:12.711Z,23.67
2023-01-21T15:05:24.317Z,21.25
2023-01-21T15:08:04.689Z,27.08
2023-01-21T15:10:36.338Z,23.40
2023-01-21T15:13:18.576Z,20.42
2023-01-21T15:16:06.916Z,24.35
2023-01-21T15:18:39.869Z,27.10
2023-01-21T15:21:35.752Z,23.20
2023-01-21T15:24:23.175Z,24.30
2023-01-21T15:27:17.689Z,20.05
2023-01-21T15:29:47.561Z,21.60
2023-01-21T15:32:25.034Z,25.58
2023-01-21T15:34:56.824Z,21.85
2023-01-21T15:37:28.316Z,21.55
2023-01-21T15:40:00.670Z,21.48
2023-01-21T15:42:41.347Z,25.48
2023-01-21T15:45:24.177Z,22.58
2023-01-21T15:48:09.745Z,18.35
2023-01-21T15:50:44.269Z,20.23
2023-01-21T15:53:29.461Z,22.85
2023-01-21T15:56:23.605Z,21.90
2023-01-21T15:59:03.172Z,18.88
2023-01-21T16:01:35.130Z,20.70
2023-01-21T16:04:19.962Z,21.10
2023-01-21T16:07:01.489Z,20.80
2023-01-21T16:09:38.669Z,18.63
2023-01-21T16:12:18.108Z,19.75
2023-01-21T16:15:01.057Z,20.73
2023-01-21T16:17:41.927Z,19.75
2023-01-21T16:20:12.585Z,17.95
2023-01-21T16:22:44.965Z,18.55
2023-01-21T16:25:18.748Z,20.75
2023-01-21T16:27:48.762Z,19.40
2023-01-21T16:30:20.853Z,17.27
2023-01-21T16:32:49.381Z,17.05
2023-01-21T16:35:17.718Z,15.77
2023-01-21T16:37:55.433Z,18.65
2023-01-21T16:40:30.613Z,17.67
2023-01-21T16:43:16.283Z,18.23
2023-01-21T16:45:50.802Z,20.45
2023-01-21T16:48:23.878Z,15.73
2023-01-21T16:53:21.377Z,18.45
2023-01-21T16:55:53.112Z,18.40
2023-01-21T16:58:25.175Z,16.65
2023-01-21T17:01:06.536Z,18.70
2023-01-21T17:03:34.906Z,19.35
2023-01-21T17:06:11.128Z,18.15
2023-01-21T17:08:39.925Z,19.92
2023-01-21T17:11:11.778Z,17.65
2023-01-21T17:13:42.001Z,19.25
2023-01-21T17:16:23.703Z,16.15
2023-01-21T17:18:54.929Z,20.75
2023-01-21T17:21:31.549Z,17.42
2023-01-21T17:24:03.437Z,17.90
2023-01-21T17:26:36.808Z,17.85
2023-01-21T17:29:18.247Z,17.60
2023-01-21T17:31:46.721Z,18.92
2023-01-21T17:34:22.944Z,18.60
2023-01-21T17:36:52.902Z,16.58
2023-01-21T17:40:00.692Z,19.75
2023-01-21T17:42:39.636Z,19.63
2023-01-21T17:45:17.280Z,19.60
2023-01-21T17:48:08.021Z,17.00
2023-01-21T17:50:37.054Z,18.48
2023-01-21T17:53:07.228Z,20.10
2023-01-21T17:55:37.293Z,22.27
2023-01-21T17:58:25.137Z,20.00
2023-01-21T18:00:53.248Z,18.70
2023-01-21T18:03:21.112Z,19.40
2023-01-21T18:05:49.575Z,21.35
2023-01-21T18:08:18.604Z,20.88
2023-01-21T18:10:47.702Z,21.63
2023-01-21T18:13:18.282Z,19.48
2023-01-21T18:15:49.357Z,18.35
2023-01-21T18:18:20.009Z,18.45
2023-01-21T18:20:48.536Z,21.85
2023-01-21T18:23:18.095Z,19.58
2023-01-21T18:25:48.718Z,22.98
2023-01-21T18:28:20.835Z,21.20
2023-01-21T18:30:49.452Z,22.77
2023-01-21T18:33:18.228Z,22.92
2023-01-21T18:35:48.626Z,21.70
2023-01-21T18:38:21.427Z,23.30
2023-01-21T18:40:49.685Z,22.67
2023-01-21T18:43:19.399Z,21.40
2023-01-21T18:45:47.314Z,21.27
2023-01-21T18:48:16.943Z,20.67
2023-01-21T18:50:45.061Z,23.17
2023-01-21T18:53:14.420Z,24.85
2023-01-21T18:55:54.569Z,22.73
2023-01-21T18:58:23.976Z,23.05
2023-01-21T19:00:52.049Z,23.25
2023-01-21T19:03:20.062Z,22.05
2023-01-21T19:05:49.179Z,23.40
2023-01-21T19:08:19.527Z,23.33
2023-01-21T19:10:47.439Z,24.88
2023-01-21T19:13:15.344Z,20.08
2023-01-21T19:15:45.369Z,22.05
2023-01-21T19:18:15.125Z,21.75
2023-01-21T19:20:43.959Z,23.25
2023-01-21T19:23:15.213Z,25.08
2023-01-21T19:25:43.803Z,22.75
2023-01-21T19:28:13.231Z,22.65
2023-01-21T19:30:45.066Z,24.40
2023-01-21T19:33:14.403Z,23.13
2023-01-21T19:35:45.029Z,21.88
2023-01-21T19:38:14.977Z,25.10
2023-01-21T19:40:43.414Z,23.60
2023-01-21T19:43:14.140Z,22.98
2023-01-21T19:45:42.635Z,23.63
2023-01-21T19:48:15.522Z,26.05
2023-01-21T19:50:43.828Z,24.83
2023-01-21T19:53:15.185Z,26.27
2023-01-21T19:55:44.015Z,25.13
2023-01-21T19:58:19.573Z,24.63
2023-01-21T20:00:49.486Z,22.95
2023-01-21T20:03:20.407Z,25.27
2023-01-21T20:05:49.701Z,23.55
2023-01-21T20:08:21.026Z,23.08
2023-01-21T20:10:49.091Z,24.55
2023-01-21T20:13:18.036Z,23.52
2023-01-21T20:15:48.383Z,22.13
2023-01-21T20:18:21.215Z,23.13
2023-01-21T20:20:49.636Z,23.88
2023-01-21T20:23:19.035Z,22.08
2023-01-21T20:25:50.149Z,24.02
2023-01-21T20:28:20.577Z,23.38
2023-01-21T20:30:49.296Z,20.60
2023-01-21T20:33:19.315Z,23.98
2023-01-21T20:35:50.341Z,24.10
2023-01-21T20:38:24.124Z,25.95
2023-01-21T20:40:52.108Z,24.15
2023-01-21T20:43:20.601Z,25.48
2023-01-21T20:45:50.195Z,23.77
2023-01-21T20:48:21.323Z,26.02
2023-01-21T20:50:52.532Z,23.67
2023-01-21T20:53:25.166Z,26.17
2023-01-21T20:55:55.606Z,22.88
2023-01-21T20:58:23.822Z,22.88
2023-01-21T21:00:51.717Z,21.55
2023-01-21T21:03:19.898Z,25.90
2023-01-21T21:05:50.125Z,23.88
2023-01-21T21:08:19.532Z,25.55
2023-01-21T21:10:50.586Z,25.45
2023-01-21T21:13:18.579Z,27.23
2023-01-21T21:15:46.864Z,24.60
2023-01-21T21:18:15.453Z,25.83
2023-01-21T21:20:43.495Z,24.45
2023-01-21T21:23:14.691Z,22.02
2023-01-21T21:25:45.622Z,24.40
2023-01-21T21:28:14.970Z,20.15
2023-01-21T21:30:43.315Z,25.63
2023-01-21T21:33:17.822Z,26.80
2023-01-21T21:35:46.873Z,26.13
2023-01-21T21:38:21.747Z,23.80
2023-01-21T21:40:52.915Z,25.67
2023-01-21T21:43:33.337Z,24.25
2023-01-21T21:46:23.996Z,23.58
2023-01-21T21:48:52.708Z,22.75
2023-01-21T21:51:22.142Z,22.60
2023-01-21T21:53:51.772Z,25.02
2023-01-21T21:56:20.885Z,21.88
2023-01-21T21:58:49.985Z,23.95
2023-01-21T22:01:20.920Z,27.65
2023-01-21T22:03:49.485Z,25.85
2023-01-21T22:06:18.882Z,26.08
2023-01-21T22:08:47.129Z,27.65
2023-01-21T22:11:18.768Z,27.75
2023-01-21T22:13:50.101Z,24.95
2023-01-21T22:16:20.745Z,24.52
2023-01-21T22:18:49.199Z,28.02
2023-01-21T22:21:18.799Z,24.83
2023-01-21T22:23:47.237Z,26.75
2023-01-21T22:26:19.037Z,25.58
2023-01-21T22:28:47.728Z,27.75
2023-01-21T22:31:17.709Z,30.60
2023-01-21T22:33:45.956Z,29.25
2023-01-21T22:36:16.492Z,27.48
2023-01-21T22:38:45.795Z,30.90
2023-01-21T22:41:16.888Z,27.45
2023-01-21T22:43:48.462Z,27.92
2023-01-21T22:48:49.849Z,29.25
2023-01-21T22:51:19.659Z,29.10
2023-01-21T22:53:47.747Z,26.58
2023-01-21T22:56:18.603Z,28.90
2023-01-21T22:58:46.704Z,30.92
2023-01-21T23:01:25.742Z,27.33
2023-01-21T23:03:54.661Z,24.80
2023-01-21T23:06:22.903Z,26.08
2023-01-21T23:08:50.893Z,25.98
2023-01-21T23:11:21.457Z,27.70
2023-01-21T23:13:50.116Z,27.20
2023-01-21T23:16:20.937Z,26.67
2023-01-21T23:18:49.482Z,26.42
2023-01-21T23:21:19.676Z,32.75
2023-01-21T23:23:47.811Z,32.03
2023-01-21T23:26:16.221Z,27.75
2023-01-21T23:28:45.651Z,29.27
2023-01-21T23:31:16.950Z,25.05
2023-01-21T23:33:45.012Z,28.08
2023-01-21T23:36:13.925Z,26.83
2023-01-21T23:38:42.214Z,27.52
2023-01-21T23:41:12.015Z,26.38
2023-01-21T23:43:40.213Z,27.08
2023-01-21T23:46:12.132Z,26.42
2023-01-21T23:48:41.087Z,29.45
2023-01-21T23:51:12.023Z,30.50
2023-01-21T23:53:41.422Z,27.05
2023-01-21T23:56:13.277Z,24.85
2023-01-21T23:58:41.242Z,27.58
